Vint Hill, VA (20188)

7:18 AM EDT on May 28, 2015 (GMT -0400)
Ivy Hill | | Change Station
CLOSE
Current Station
Personal Weather Station
Location: Warrenton, VA
Elevation: 561 ft
Nearby Weather Stations

Elev 561 ft 38.74 °N, 77.79 °W | Updated 1 minute ago

Clear
Clear
66.9 °F
Feels Like 66.9 °F
N
1.1
Wind Variable Wind from SW
Gusts 1.1 mph

Today
High -- | Low -- °F
--% Chance of Precip.
Yesterday
High -- | Low -- °F
Precip. -- in
5:50 AM 8:27 PM
Waxing Gibbous, 75% visible
Pressure 30.17 in
Visibility 10.0 miles
Clouds Clear
Dew Point 65 °F
Humidity 94%
Rainfall 0.00 in
Snow Depth Not available.
UV 1 out of 12
Pollen 7.40 out of 12
Air Quality Not available.
Flu Activity No Activity
METAR KHWY 281055Z AUTO 00000KT 10SM CLR 20/20 A3017 RMK AO2 T01980196

More Conditions Fewer Conditions

Pressure 30.17 in
Visibility 10.0 miles
Clouds Clear
Dew Point 65 °F
Humidity 94%
Rainfall 0.00 in
Snow Depth Not available.
UV 1 out of 12
Pollen 7.40 out of 12
Air Quality Not available.
Flu Activity No Activity
METAR KHWY 281055Z AUTO 00000KT 10SM CLR 20/20 A3017 RMK AO2 T01980196

More Conditions Fewer Conditions

10-Day Weather Forecast

Almanac

Astronomy

May. 28, 2015 Rise Set
Actual Time
Civil Twilight
Nautical Twilight
Astronomical Twilight
Moon
Length of Visible Light
Length of Day
Tomorrow will be .
, % of the Moon is Illuminated

Today's Extremes

State Highs State Lows

Community

WunderPhotos

Upload Photos

1,824,954 photos uploaded!

WunderBlogs® & News

Nearby

Air Quality

  Air Quality AQ Index Pollutant
Not available.

Snow Depth

Station Depth Elevation

Earthquake Activity

City Distance Mag. Time & Date
Minimum magnitude displayed is 2.5.

Coastal Water Temperatures

Place Temperature

Stations

Nearby Weather Stations

Station Location Temp. Windchill Dew Point Humidity Wind Precip. Elev Updated Type